Time;durP1;ratioP1;P1;durP2;ratioP2;P2;SDS_P1;SDS_P2;PMS_P1;PMS_P2;Temp;Humidity;BMP_temperature;BMP_pressure;BME280_temperature;BME280_humidity;BME280_pressure;Samples;Min_cycle;Max_cycle;Signal;HPM_P1;HPM_P2
2023/06/09 00:00:36;;;;;;;17.85;5.47;;;;;;;16.54;78.49;101281.59;5069827;28;20033;-75
2023/06/09 00:03:02;;;;;;;19.60;5.75;;;;;;;16.49;78.86;101283.88;5078273;28;20053;-75
2023/06/09 00:05:32;;;;;;;15.75;5.25;;;;;;;16.43;78.86;101284.47;5080994;28;20036;-75
2023/06/09 00:07:58;;;;;;;15.27;5.10;;;;;;;16.40;78.96;101282.88;5093737;28;20043;-75
2023/06/09 00:10:24;;;;;;;17.08;5.43;;;;;;;16.34;78.58;101282.56;5069200;28;20016;-74
2023/06/09 00:12:49;;;;;;;18.60;5.50;;;;;;;16.31;79.17;101280.13;5083727;28;20047;-74
2023/06/09 00:15:15;;;;;;;17.80;6.00;;;;;;;16.30;78.90;101281.16;5075293;28;20025;-74
2023/06/09 00:17:40;;;;;;;19.65;5.20;;;;;;;16.24;79.51;101283.41;5090779;28;20025;-75
2023/06/09 00:20:09;;;;;;;15.88;5.15;;;;;;;16.21;79.72;101275.56;5085965;28;20039;-75
2023/06/09 00:22:42;;;;;;;15.63;5.65;;;;;;;16.17;79.62;101279.53;5093756;28;20080;-75
2023/06/09 00:25:15;;;;;;;18.05;5.53;;;;;;;16.10;80.08;101272.09;5093010;28;20049;-74
2023/06/09 00:27:43;;;;;;;18.73;5.60;;;;;;;16.10;79.25;101280.22;5075043;28;20020;-74
2023/06/09 00:30:09;;;;;;;15.40;5.70;;;;;;;16.11;79.32;101277.38;5085446;28;20040;-75
2023/06/09 00:32:35;;;;;;;18.50;5.88;;;;;;;16.08;79.72;101273.09;5092950;28;20036;-75
2023/06/09 00:35:00;;;;;;;16.23;5.45;;;;;;;16.10;77.42;101269.38;5070832;28;20059;-75
2023/06/09 00:37:26;;;;;;;17.88;5.60;;;;;;;16.08;77.81;101272.25;5083741;28;20028;-75
2023/06/09 00:39:51;;;;;;;19.48;5.88;;;;;;;16.10;78.35;101269.38;5067531;28;20383;-75
2023/06/09 00:42:16;;;;;;;16.30;4.72;;;;;;;16.08;78.03;101270.38;5091008;28;20055;-74
2023/06/09 00:44:42;;;;;;;14.57;5.32;;;;;;;16.08;77.64;101261.41;5092093;28;20037;-75
2023/06/09 00:47:07;;;;;;;16.83;5.22;;;;;;;16.05;78.79;101272.50;5088344;28;20032;-75
2023/06/09 00:49:33;;;;;;;17.45;5.32;;;;;;;16.03;77.92;101274.50;5087827;28;20020;-75
2023/06/09 00:51:59;;;;;;;17.58;5.03;;;;;;;15.98;77.08;101266.78;5064346;28;20043;-75
2023/06/09 00:54:26;;;;;;;15.82;5.20;;;;;;;15.97;76.54;101266.91;5090692;28;20036;-75
2023/06/09 00:56:51;;;;;;;19.52;5.68;;;;;;;15.96;77.56;101263.34;5088299;28;20058;-74
2023/06/09 00:59:17;;;;;;;14.98;4.80;;;;;;;15.98;77.28;101255.94;5092452;28;20028;-75
2023/06/09 01:01:44;;;;;;;21.80;5.15;;;;;;;16.00;75.64;101259.38;5068400;28;20357;-74
2023/06/09 01:04:12;;;;;;;17.23;5.35;;;;;;;15.99;75.52;101263.06;5081164;28;20060;-73
2023/06/09 01:06:45;;;;;;;18.92;6.13;;;;;;;15.99;75.95;101257.66;5060771;28;20124;-74
2023/06/09 01:09:25;;;;;;;20.67;5.22;;;;;;;16.04;74.39;101251.81;5066010;28;20028;-74
2023/06/09 01:12:14;;;;;;;15.10;4.47;;;;;;;16.01;76.13;101260.22;5073146;28;20360;-75
2023/06/09 01:14:52;;;;;;;14.10;4.95;;;;;;;15.98;76.86;101258.66;5050965;28;20037;-73
2023/06/09 01:17:19;;;;;;;20.17;5.78;;;;;;;15.96;75.90;101257.94;5076186;28;20031;-74
2023/06/09 01:19:48;;;;;;;19.50;5.82;;;;;;;15.97;74.46;101251.50;5079854;28;20033;-74
2023/06/09 01:22:51;;;;;;;16.83;5.38;;;;;;;16.01;74.94;101252.09;5064133;28;20040;-74
2023/06/09 01:25:23;;;;;;;18.60;5.15;;;;;;;16.00;74.39;101251.25;5053261;28;20040;-74
2023/06/09 01:27:51;;;;;;;23.85;6.07;;;;;;;15.97;74.99;101251.50;5061983;28;20024;-73
2023/06/09 01:30:18;;;;;;;13.88;4.60;;;;;;;15.98;74.85;101247.81;5078971;28;20020;-73
2023/06/09 01:32:44;;;;;;;17.05;5.25;;;;;;;15.95;73.53;101237.22;5064988;28;20028;-74
2023/06/09 01:35:11;;;;;;;21.80;6.35;;;;;;;15.95;72.85;101242.66;5063583;28;20036;-74
2023/06/09 01:37:37;;;;;;;16.95;5.30;;;;;;;15.92;75.06;101242.09;5075764;28;20024;-74
2023/06/09 01:40:03;;;;;;;20.05;5.53;;;;;;;15.87;74.35;101250.59;5078649;28;20057;-74
2023/06/09 01:42:29;;;;;;;18.98;5.35;;;;;;;15.87;74.56;101243.34;5073621;28;20032;-74
2023/06/09 01:44:54;;;;;;;19.05;5.30;;;;;;;15.83;75.94;101241.06;5078153;28;20039;-74
2023/06/09 01:47:20;;;;;;;16.08;5.57;;;;;;;15.81;75.05;101246.63;5073927;28;20032;-74
2023/06/09 01:50:01;;;;;;;19.70;5.57;;;;;;;15.81;75.27;101241.19;5082323;28;20036;-74
2023/06/09 01:52:36;;;;;;;18.83;6.18;;;;;;;15.77;75.01;101241.56;5054383;28;20055;-73
2023/06/09 01:55:25;;;;;;;18.48;5.30;;;;;;;15.76;76.42;101239.84;5082673;28;20024;-74
2023/06/09 01:57:53;;;;;;;21.90;5.30;;;;;;;15.71;76.24;101235.69;5064592;28;20051;-74
2023/06/09 02:00:23;;;;;;;14.25;5.20;;;;;;;15.66;77.69;101240.66;5057308;28;20059;-74
2023/06/09 02:02:52;;;;;;;22.33;6.45;;;;;;;15.65;75.89;101240.78;5067028;28;20118;-74
2023/06/09 02:05:19;;;;;;;22.30;5.88;;;;;;;15.63;75.19;101237.38;5082306;28;20453;-74
2023/06/09 02:07:45;;;;;;;16.58;5.57;;;;;;;15.58;76.52;101245.03;5075738;28;20485;-74
2023/06/09 02:10:12;;;;;;;20.45;6.00;;;;;;;15.59;75.62;101238.63;5063279;28;20091;-74
2023/06/09 02:12:37;;;;;;;17.42;5.80;;;;;;;15.57;76.24;101232.50;5084059;28;20032;-74
2023/06/09 02:15:04;;;;;;;17.77;5.82;;;;;;;15.51;77.08;101223.06;5082976;28;20076;-74
2023/06/09 02:17:30;;;;;;;21.88;5.68;;;;;;;15.49;76.47;101225.91;5082490;28;20121;-74
2023/06/09 02:19:55;;;;;;;19.63;5.47;;;;;;;15.44;77.94;101227.31;5075140;28;20025;-74
2023/06/09 02:22:21;;;;;;;19.90;5.72;;;;;;;15.43;77.20;101228.28;5058611;28;20035;-74
2023/06/09 02:24:46;;;;;;;22.40;6.50;;;;;;;15.41;77.60;101217.59;5083265;28;20476;-74
2023/06/09 02:27:12;;;;;;;18.77;6.03;;;;;;;15.38;76.67;101224.13;5065343;28;20040;-74
2023/06/09 02:29:37;;;;;;;23.20;6.82;;;;;;;15.37;77.20;101221.56;5063635;28;20017;-74
2023/06/09 02:32:02;;;;;;;16.42;5.57;;;;;;;15.34;76.75;101222.72;5080694;28;20040;-74
2023/06/09 02:34:29;;;;;;;19.45;5.97;;;;;;;15.32;77.78;101224.69;5055492;28;20039;-74
2023/06/09 02:36:57;;;;;;;19.35;5.60;;;;;;;15.27;76.92;101224.25;5077942;28;20029;-74
2023/06/09 02:39:23;;;;;;;17.83;6.22;;;;;;;15.22;77.12;101217.50;5056121;28;20028;-74
2023/06/09 02:41:48;;;;;;;17.63;5.40;;;;;;;15.23;78.14;101216.50;5077088;28;20054;-75
2023/06/09 02:44:14;;;;;;;20.10;6.05;;;;;;;15.18;78.04;101211.47;5083971;28;20032;-74
2023/06/09 02:46:41;;;;;;;19.05;6.22;;;;;;;15.16;77.99;101216.19;5065773;28;20499;-74
2023/06/09 02:49:07;;;;;;;16.17;5.75;;;;;;;15.10;79.14;101214.00;5084782;28;20032;-74
2023/06/09 02:51:32;;;;;;;17.13;5.97;;;;;;;15.05;78.41;101210.84;5068179;28;20263;-75
2023/06/09 02:53:58;;;;;;;18.55;6.38;;;;;;;15.01;80.06;101216.53;5073346;28;20029;-74
2023/06/09 02:56:23;;;;;;;17.05;6.03;;;;;;;15.01;78.78;101215.66;5082345;28;20033;-74
2023/06/09 02:58:48;;;;;;;19.10;5.65;;;;;;;14.94;79.84;101214.47;5064910;28;20047;-74
2023/06/09 03:01:17;;;;;;;19.70;5.53;;;;;;;14.92;79.62;101214.63;5076929;28;20036;-74
2023/06/09 03:03:43;;;;;;;19.35;5.95;;;;;;;14.87;79.68;101213.28;5067879;28;20048;-74
2023/06/09 03:06:08;;;;;;;18.75;6.05;;;;;;;14.85;80.06;101216.97;5068480;28;20029;-74
2023/06/09 03:08:33;;;;;;;17.45;5.63;;;;;;;14.84;80.53;101217.09;5072768;28;20029;-74
2023/06/09 03:10:59;;;;;;;19.23;6.60;;;;;;;14.79;80.38;101212.09;5070557;28;20096;-74
2023/06/09 03:13:24;;;;;;;19.52;6.00;;;;;;;14.73;79.62;101223.44;5087860;28;20055;-74
2023/06/09 03:15:50;;;;;;;23.17;6.60;;;;;;;14.70;80.59;101214.72;5070222;28;20056;-74
2023/06/09 03:18:16;;;;;;;18.73;6.35;;;;;;;14.65;81.54;101221.38;5086293;28;20035;-74
2023/06/09 03:20:42;;;;;;;20.92;6.45;;;;;;;14.64;79.50;101227.78;5084497;28;20058;-74
2023/06/09 03:23:08;;;;;;;18.55;6.07;;;;;;;14.62;80.91;101221.63;5087077;28;20099;-74
2023/06/09 03:25:33;;;;;;;18.42;6.50;;;;;;;14.60;81.42;101223.59;5083827;28;20069;-74
2023/06/09 03:27:59;;;;;;;21.65;6.32;;;;;;;14.56;81.47;101232.09;5086165;28;20040;-74
2023/06/09 03:30:24;;;;;;;16.67;6.38;;;;;;;14.57;80.03;101222.97;5063779;28;20016;-74
2023/06/09 03:32:50;;;;;;;20.27;6.03;;;;;;;14.50;81.52;101228.06;5082956;28;20028;-74
2023/06/09 03:35:16;;;;;;;18.05;5.85;;;;;;;14.49;82.60;101226.34;5086158;28;20028;-74
2023/06/09 03:37:41;;;;;;;21.90;6.57;;;;;;;14.48;82.15;101232.72;5060616;28;20036;-74
2023/06/09 03:40:07;;;;;;;20.10;6.40;;;;;;;14.43;82.23;101233.13;5058305;28;20032;-74
2023/06/09 03:42:32;;;;;;;17.05;5.68;;;;;;;14.42;82.81;101228.72;5081820;28;20047;-74
2023/06/09 03:44:58;;;;;;;20.90;7.00;;;;;;;14.36;83.46;101218.38;5086114;28;20036;-74
2023/06/09 03:47:24;;;;;;;21.60;6.50;;;;;;;14.35;83.30;101227.50;5082195;28;20113;-74
2023/06/09 03:49:50;;;;;;;18.63;6.35;;;;;;;14.37;81.97;101249.84;5047390;28;20021;-74
2023/06/09 03:52:15;;;;;;;17.80;6.22;;;;;;;14.38;80.81;101257.00;5064828;28;20024;-74
2023/06/09 03:54:40;;;;;;;20.83;6.35;;;;;;;14.34;82.27;101253.66;5066390;28;20040;-74
2023/06/09 03:57:06;;;;;;;20.48;6.75;;;;;;;14.34;82.73;101255.53;5066489;28;20345;-74
2023/06/09 03:59:31;;;;;;;23.88;6.50;;;;;;;14.32;83.30;101246.69;5067245;28;20025;-74
2023/06/09 04:01:57;;;;;;;19.70;6.32;;;;;;;14.33;83.26;101242.97;5072746;28;20098;-74
2023/06/09 04:04:22;;;;;;;20.40;6.20;;;;;;;14.34;83.86;101244.69;5052634;28;20086;-74
2023/06/09 04:06:48;;;;;;;18.73;7.00;;;;;;;14.36;83.46;101245.41;5076907;28;20028;-74
2023/06/09 04:09:13;;;;;;;21.90;7.05;;;;;;;14.38;82.91;101256.09;5060683;28;20032;-74
2023/06/09 04:11:39;;;;;;;19.00;5.97;;;;;;;14.38;83.08;101248.00;5056347;28;20020;-74
2023/06/09 04:14:05;;;;;;;18.38;6.13;;;;;;;14.41;82.86;101245.06;5059060;28;20036;-74
2023/06/09 04:16:31;;;;;;;21.48;6.97;;;;;;;14.44;82.58;101256.47;5052363;28;20445;-73
2023/06/09 04:18:56;;;;;;;19.23;6.38;;;;;;;14.44;82.50;101255.63;5075144;28;20041;-74
2023/06/09 04:21:22;;;;;;;18.52;6.45;;;;;;;14.44;83.29;101255.63;5084922;28;20048;-74
2023/06/09 04:23:47;;;;;;;19.50;7.25;;;;;;;14.50;83.66;101252.41;5084023;28;20351;-74
2023/06/09 04:26:13;;;;;;;20.88;6.75;;;;;;;14.52;82.72;101247.72;5064030;28;20028;-74
2023/06/09 04:28:40;;;;;;;24.67;7.20;;;;;;;14.56;82.62;101253.75;5067902;28;20016;-75
2023/06/09 04:31:07;;;;;;;20.90;7.03;;;;;;;14.57;83.81;101255.44;5041624;28;20043;-76
2023/06/09 04:33:36;;;;;;;22.88;7.03;;;;;;;14.63;83.07;101257.69;5050732;28;20024;-75
2023/06/09 04:36:03;;;;;;;22.17;7.13;;;;;;;14.66;83.15;101260.13;5058228;28;20039;-75
2023/06/09 04:38:32;;;;;;;22.98;7.20;;;;;;;14.68;82.55;101252.72;5078922;28;20024;-75
2023/06/09 04:41:01;;;;;;;21.98;7.88;;;;;;;14.72;82.80;101256.03;5060636;28;20380;-75
2023/06/09 04:43:27;;;;;;;22.45;7.25;;;;;;;14.75;83.45;101251.22;5061852;28;20032;-74
2023/06/09 04:45:55;;;;;;;19.88;7.28;;;;;;;14.80;81.81;101258.94;5053769;28;20029;-73
2023/06/09 04:48:21;;;;;;;22.92;8.20;;;;;;;14.81;82.37;101258.81;5080663;28;20104;-74
2023/06/09 04:50:47;;;;;;;29.75;8.43;;;;;;;14.85;81.57;101259.44;5071366;28;20017;-73
2023/06/09 04:53:13;;;;;;;23.50;7.80;;;;;;;14.88;82.96;101259.16;5064102;28;20024;-73
2023/06/09 04:55:38;;;;;;;22.10;7.07;;;;;;;14.88;83.69;101259.16;5083099;28;20025;-74
2023/06/09 04:58:04;;;;;;;22.50;7.80;;;;;;;14.92;82.29;101260.63;5064927;28;20024;-73
2023/06/09 05:00:30;;;;;;;22.55;7.35;;;;;;;14.95;82.00;101264.91;5061233;28;20477;-74
2023/06/09 05:03:04;;;;;;;22.75;8.23;;;;;;;15.00;82.11;101262.66;5075162;28;20063;-73
2023/06/09 05:05:29;;;;;;;21.90;8.73;;;;;;;15.01;82.84;101265.25;5060028;28;20032;-73
2023/06/09 05:07:55;;;;;;;24.90;7.45;;;;;;;15.03;83.70;101262.41;5049527;28;20016;-72
2023/06/09 05:10:21;;;;;;;26.75;9.45;;;;;;;15.10;81.36;101257.31;5082611;28;20092;-74
2023/06/09 05:12:46;;;;;;;23.38;8.07;;;;;;;15.12;81.08;101267.00;5065241;28;20321;-73
2023/06/09 05:15:12;;;;;;;27.90;9.05;;;;;;;15.15;82.11;101268.59;5064360;28;20028;-73
2023/06/09 05:17:37;;;;;;;24.10;8.20;;;;;;;15.21;82.89;101262.66;5082912;28;20051;-73
2023/06/09 05:20:07;;;;;;;23.80;7.80;;;;;;;15.25;81.56;101260.56;5064150;28;20013;-73
2023/06/09 05:22:33;;;;;;;25.90;8.57;;;;;;;15.30;82.79;101269.13;5063966;28;20169;-73
2023/06/09 05:24:59;;;;;;;24.67;8.55;;;;;;;15.34;80.72;101266.03;5065448;28;20112;-73
2023/06/09 05:27:24;;;;;;;22.30;8.30;;;;;;;15.39;80.87;101268.34;5082398;28;20024;-73
2023/06/09 05:29:49;;;;;;;26.35;8.13;;;;;;;15.43;81.09;101271.63;5063146;28;20109;-73
2023/06/09 05:32:15;;;;;;;24.40;7.78;;;;;;;15.47;80.52;101276.63;5075415;28;20024;-73
2023/06/09 05:34:40;;;;;;;23.50;9.35;;;;;;;15.53;80.92;101272.53;5081169;28;20064;-73
2023/06/09 05:37:06;;;;;;;22.08;7.88;;;;;;;15.59;81.64;101273.84;5081830;28;20498;-73
2023/06/09 05:39:31;;;;;;;21.35;8.30;;;;;;;15.63;81.49;101268.03;5081204;28;20039;-74
2023/06/09 05:41:57;;;;;;;23.67;8.77;;;;;;;15.66;81.37;101275.88;5074284;28;20403;-73
2023/06/09 05:44:22;;;;;;;21.10;8.63;;;;;;;15.71;82.10;101273.63;5060686;28;20075;-79
2023/06/09 05:46:47;;;;;;;22.52;8.10;;;;;;;15.78;80.52;101281.22;5070059;28;20438;-73
2023/06/09 05:49:13;;;;;;;23.83;8.23;;;;;;;15.84;81.49;101283.41;5059257;28;20052;-72
2023/06/09 05:51:38;;;;;;;25.00;8.88;;;;;;;15.87;80.46;101270.47;5077990;28;20367;-73
2023/06/09 05:54:04;;;;;;;23.13;8.85;;;;;;;15.94;80.22;101275.31;5060642;28;20044;-73
2023/06/09 05:56:29;;;;;;;25.60;8.45;;;;;;;15.99;80.76;101267.63;5077301;28;20036;-72
2023/06/09 05:59:03;;;;;;;24.48;9.30;;;;;;;16.05;80.77;101278.78;5044933;28;20052;-72
2023/06/09 06:01:32;;;;;;;22.10;8.38;;;;;;;16.12;80.42;101270.09;5045579;28;20422;-72
2023/06/09 06:03:58;;;;;;;24.75;8.23;;;;;;;16.18;80.31;101272.25;5073482;28;20039;-72
2023/06/09 06:06:24;;;;;;;24.55;8.60;;;;;;;16.25;80.81;101267.97;5073979;28;20029;-73
2023/06/09 06:08:49;;;;;;;26.58;9.27;;;;;;;16.30;81.89;101268.44;5063728;28;20145;-73
2023/06/09 06:11:15;;;;;;;23.88;8.60;;;;;;;16.37;82.57;101274.13;5057407;28;20024;-72
2023/06/09 06:13:40;;;;;;;23.23;7.97;;;;;;;16.42;80.30;101272.72;5042965;28;20029;-73
2023/06/09 06:16:05;;;;;;;22.95;8.75;;;;;;;16.49;81.36;101274.91;5058749;28;20032;-72
2023/06/09 06:18:31;;;;;;;24.27;9.10;;;;;;;16.56;80.32;101273.31;5048090;28;20089;-73
2023/06/09 06:20:56;;;;;;;27.17;10.05;;;;;;;16.61;81.17;101268.34;5070058;28;20083;-73
2023/06/09 06:23:21;;;;;;;24.23;9.55;;;;;;;16.67;82.18;101275.91;5064371;28;20036;-71
2023/06/09 06:25:47;;;;;;;27.50;9.70;;;;;;;16.73;80.67;101282.63;5048424;28;20440;-74
2023/06/09 06:28:14;;;;;;;23.95;9.68;;;;;;;16.77;80.38;101273.19;5054105;28;20020;-72
2023/06/09 06:30:40;;;;;;;24.63;9.30;;;;;;;16.85;81.95;101278.78;5051209;28;20309;-72
2023/06/09 06:33:06;;;;;;;21.98;10.35;;;;;;;16.91;80.95;101271.94;5055038;28;20030;-73
2023/06/09 06:35:32;;;;;;;25.75;10.43;;;;;;;16.98;80.62;101278.50;5058704;28;20032;-71
2023/06/09 06:37:57;;;;;;;29.15;10.88;;;;;;;17.04;80.03;101272.50;5062978;28;20481;-73
2023/06/09 06:40:23;;;;;;;22.90;9.77;;;;;;;17.10;81.64;101271.06;5073050;28;20098;-74
2023/06/09 06:42:49;;;;;;;573.50;100.95;;;;;;;17.19;80.34;101274.75;5076589;28;20452;-70
2023/06/09 06:45:16;;;;;;;45.05;13.55;;;;;;;17.27;79.44;101274.91;5079664;28;20032;-78
2023/06/09 06:47:43;;;;;;;26.55;10.88;;;;;;;17.28;77.99;101268.47;5060077;28;20055;-78
2023/06/09 06:50:09;;;;;;;28.38;10.57;;;;;;;17.34;81.05;101267.03;5042433;28;20086;-78
2023/06/09 06:52:35;;;;;;;25.38;10.98;;;;;;;17.38;81.26;101263.88;5062056;28;20024;-79
2023/06/09 06:55:01;;;;;;;25.23;11.55;;;;;;;17.44;85.21;101266.00;5080200;28;20109;-80
2023/06/09 06:57:27;;;;;;;25.45;10.57;;;;;;;17.53;81.55;101256.09;5114665;22;20059;-73
2023/06/09 06:59:52;;;;;;;24.75;10.50;;;;;;;17.58;80.69;101263.81;5083643;28;20028;-73
2023/06/09 07:02:17;;;;;;;24.02;10.65;;;;;;;17.63;81.63;101261.50;5118164;28;20031;-70
2023/06/09 07:04:43;;;;;;;21.23;9.98;;;;;;;17.69;80.77;101263.63;5100847;28;20023;-71
2023/06/09 07:07:09;;;;;;;23.90;10.68;;;;;;;17.75;80.81;101270.34;5092068;28;20039;-72
2023/06/09 07:09:34;;;;;;;22.30;8.93;;;;;;;17.79;80.11;101266.31;5094947;28;20008;-72
2023/06/09 07:12:00;;;;;;;25.33;11.13;;;;;;;17.89;80.99;101271.69;5106947;28;20078;-72
2023/06/09 07:14:25;;;;;;;24.42;8.55;;;;;;;17.93;79.70;101278.56;5118259;28;20028;-78
2023/06/09 07:16:50;;;;;;;25.33;10.70;;;;;;;17.97;79.08;101280.00;5092719;28;20031;-77
2023/06/09 07:19:15;;;;;;;27.83;12.27;;;;;;;18.05;78.48;101274.63;5103852;28;20020;-78
2023/06/09 07:21:41;;;;;;;26.65;11.40;;;;;;;18.11;80.12;101276.78;5101369;28;20024;-80
2023/06/09 07:24:06;;;;;;;23.02;9.52;;;;;;;18.16;79.49;101276.31;5099195;28;20019;-77
2023/06/09 07:26:32;;;;;;;25.65;9.75;;;;;;;18.21;78.72;101276.69;5095918;28;20039;-79
2023/06/09 07:28:57;;;;;;;25.05;11.30;;;;;;;18.29;79.94;101274.09;5103064;28;20031;-78
2023/06/09 07:31:23;;;;;;;23.48;10.30;;;;;;;18.32;78.93;101267.50;5077798;28;20027;-78
2023/06/09 07:33:48;;;;;;;24.70;10.95;;;;;;;18.37;78.33;101276.03;5097584;28;20060;-79
2023/06/09 07:36:14;;;;;;;23.40;10.35;;;;;;;18.43;79.25;101275.41;5108447;28;20024;-75
2023/06/09 07:38:42;;;;;;;23.02;11.10;;;;;;;18.48;78.11;101283.16;5098779;28;20095;-78
2023/06/09 07:41:08;;;;;;;25.33;11.98;;;;;;;18.52;77.08;101285.41;5098742;28;20059;-75
2023/06/09 07:43:33;;;;;;;25.42;11.43;;;;;;;18.60;77.03;101281.06;5100550;28;20094;-78
2023/06/09 07:45:58;;;;;;;25.95;12.93;;;;;;;18.69;79.08;101288.28;5102063;28;20020;-78
2023/06/09 07:48:24;;;;;;;28.10;11.18;;;;;;;18.71;78.53;101282.69;5085862;28;21285;-81
2023/06/09 07:50:50;;;;;;;23.27;9.43;;;;;;;18.77;78.24;101279.31;5084126;28;20033;-79
2023/06/09 07:53:15;;;;;;;22.77;10.90;;;;;;;18.88;80.38;101273.69;5102696;28;20028;-79
2023/06/09 07:55:40;;;;;;;29.55;11.18;;;;;;;18.89;76.79;101274.53;5085387;28;20471;-81
2023/06/09 07:58:05;;;;;;;26.70;10.70;;;;;;;18.97;78.83;101271.88;5091117;28;20053;-75
2023/06/09 08:00:31;;;;;;;21.98;10.57;;;;;;;19.07;80.21;101267.19;5110443;28;20694;-75
2023/06/09 08:03:03;;;;;;;23.83;9.60;;;;;;;19.04;75.87;101268.38;5086738;28;20020;-74
2023/06/09 08:05:30;;;;;;;22.23;9.48;;;;;;;19.07;75.33;101261.75;5086083;28;20020;-76
2023/06/09 08:07:57;;;;;;;22.20;9.57;;;;;;;19.13;75.86;101271.16;5109748;28;20031;-73
2023/06/09 08:10:22;;;;;;;21.58;9.00;;;;;;;19.18;75.58;101268.81;5105819;28;20103;-74
2023/06/09 08:12:49;;;;;;;19.38;7.97;;;;;;;19.24;75.07;101272.75;5125298;28;20047;-73
2023/06/09 08:15:15;;;;;;;24.23;10.13;;;;;;;19.28;76.91;101261.38;5120364;28;20024;-73
2023/06/09 08:17:40;;;;;;;24.13;10.52;;;;;;;19.37;76.94;101270.47;5118409;28;20036;-73
2023/06/09 08:20:06;;;;;;;22.85;9.52;;;;;;;19.47;75.22;101260.31;5111520;28;20028;-73
2023/06/09 08:22:32;;;;;;;21.67;11.40;;;;;;;19.60;75.74;101259.03;5117897;28;20032;-73
2023/06/09 08:24:58;;;;;;;23.63;9.80;;;;;;;19.65;74.54;101259.41;5104749;28;20082;-75
2023/06/09 08:27:23;;;;;;;22.23;9.20;;;;;;;19.67;74.09;101258.22;5095653;28;20030;-74
2023/06/09 08:29:49;;;;;;;25.83;10.98;;;;;;;19.80;70.34;101256.97;5100438;28;20027;-75
2023/06/09 08:32:15;;;;;;;21.35;8.73;;;;;;;19.78;73.80;101254.41;5084761;28;20066;-75
2023/06/09 08:34:41;;;;;;;19.80;8.52;;;;;;;19.87;72.17;101250.69;5111339;28;20069;-75
2023/06/09 08:37:07;;;;;;;19.92;9.02;;;;;;;19.95;71.97;101254.47;5103744;28;20036;-73
2023/06/09 08:39:33;;;;;;;22.95;9.55;;;;;;;20.03;70.94;101259.94;5117463;28;20091;-73
2023/06/09 08:42:01;;;;;;;22.05;10.10;;;;;;;20.15;69.53;101255.06;5112447;28;20047;-75
2023/06/09 08:44:28;;;;;;;22.60;8.57;;;;;;;20.17;70.69;101259.31;5109049;28;20104;-74
2023/06/09 08:47:00;;;;;;;21.02;9.10;;;;;;;20.24;69.67;101254.91;5104014;28;20032;-75
2023/06/09 08:49:26;;;;;;;20.40;8.65;;;;;;;20.32;67.80;101253.22;5109487;28;20035;-74
2023/06/09 08:51:52;;;;;;;19.17;8.00;;;;;;;20.38;68.51;101263.47;5120796;28;20028;-74
2023/06/09 08:54:17;;;;;;;22.40;9.07;;;;;;;20.52;66.46;101257.34;5109259;28;20029;-72
2023/06/09 08:56:43;;;;;;;22.83;8.77;;;;;;;20.60;66.12;101261.97;5062521;28;1051340;-74
2023/06/09 08:59:09;;;;;;;19.88;8.43;;;;;;;20.62;69.13;101253.63;5124826;27;20046;-73
2023/06/09 09:01:36;;;;;;;25.52;10.38;;;;;;;20.72;65.97;101257.09;5132312;27;20080;-73
2023/06/09 09:04:02;;;;;;;21.02;9.50;;;;;;;20.83;65.55;101243.06;5108695;28;20043;-73
2023/06/09 09:06:27;;;;;;;20.73;9.93;;;;;;;20.98;65.91;101245.13;5118781;28;20024;-74
2023/06/09 09:08:52;;;;;;;22.17;10.43;;;;;;;21.06;65.45;101253.34;5122970;28;20019;-74
2023/06/09 09:11:18;;;;;;;19.00;8.88;;;;;;;21.03;66.49;101238.13;5112796;27;20020;-74
2023/06/09 09:13:47;;;;;;;19.85;8.65;;;;;;;21.02;66.72;101241.03;5118173;22;20078;-72
2023/06/09 09:16:16;;;;;;;22.45;9.70;;;;;;;21.08;67.15;101245.81;5109789;27;20058;-74
2023/06/09 09:18:46;;;;;;;21.52;10.70;;;;;;;21.18;64.52;101241.00;5101146;27;20038;-74
2023/06/09 09:21:23;;;;;;;20.33;10.10;;;;;;;21.29;66.58;101246.13;5107863;28;20028;-74
2023/06/09 09:24:01;;;;;;;24.17;11.10;;;;;;;21.42;64.45;101236.50;5118487;27;20031;-74
2023/06/09 09:26:30;;;;;;;24.92;11.00;;;;;;;21.48;62.87;101233.09;5099018;28;20032;-74
2023/06/09 09:29:08;;;;;;;22.70;10.63;;;;;;;21.49;63.60;101234.78;5124937;27;20042;-73
2023/06/09 09:31:37;;;;;;;18.65;7.45;;;;;;;21.43;65.65;101230.88;5113635;27;20453;-74
2023/06/09 09:34:02;;;;;;;21.00;9.80;;;;;;;21.52;65.15;101231.72;5120214;27;20054;-74
2023/06/09 09:36:28;;;;;;;20.98;10.20;;;;;;;21.60;61.88;101226.25;5105080;27;20331;-73
2023/06/09 09:39:01;;;;;;;19.27;7.82;;;;;;;21.58;63.98;101225.59;5114382;27;20027;-75
2023/06/09 09:41:27;;;;;;;21.95;10.07;;;;;;;21.59;63.76;101224.53;5103406;28;20095;-74
2023/06/09 09:43:54;;;;;;;21.42;11.02;;;;;;;21.69;63.04;101226.22;5100644;28;20439;-74
2023/06/09 09:46:20;;;;;;;19.90;8.48;;;;;;;21.71;63.92;101221.44;5129972;27;20042;-74
2023/06/09 09:48:47;;;;;;;18.02;7.90;;;;;;;21.68;64.00;101222.63;5110312;27;20051;-73
2023/06/09 09:51:12;;;;;;;20.30;9.52;;;;;;;21.75;64.38;101220.06;5128071;27;20334;-74
2023/06/09 09:53:38;;;;;;;23.60;10.85;;;;;;;21.73;62.46;101216.63;5111738;27;20079;-73
2023/06/09 09:56:04;;;;;;;18.95;7.97;;;;;;;21.67;62.57;101214.59;5129778;27;20061;-74
2023/06/09 09:58:34;;;;;;;19.98;8.45;;;;;;;21.71;63.82;101213.22;5110439;28;20023;-74
2023/06/09 10:01:03;;;;;;;22.65;10.48;;;;;;;21.81;60.10;101219.34;5122999;27;20540;-73
2023/06/09 10:03:30;;;;;;;20.98;9.50;;;;;;;21.91;61.63;101219.13;5108119;28;20107;-74
2023/06/09 10:05:59;;;;;;;18.40;8.93;;;;;;;22.04;60.76;101213.09;5094230;28;20056;-71
2023/06/09 10:08:27;;;;;;;;;;;;;;;21.95;62.55;101213.13;5115464;28;20225;-72
2023/06/09 10:10:56;;;;;;;16.35;6.68;;;;;;;21.97;63.02;101213.78;5108429;28;19912;-71
2023/06/09 10:13:22;;;;;;;22.25;9.48;;;;;;;22.12;59.02;101210.28;5104782;28;20056;-71
2023/06/09 10:15:51;;;;;;;19.65;8.38;;;;;;;22.11;59.75;101203.97;5093299;28;20055;-74
2023/06/09 10:18:16;;;;;;;18.25;6.88;;;;;;;22.02;60.17;101199.53;5119081;28;20043;-74
2023/06/09 10:20:42;;;;;;;19.08;8.80;;;;;;;22.09;59.82;101203.28;5097891;28;20023;-74
2023/06/09 10:23:08;;;;;;;18.55;6.95;;;;;;;22.10;61.18;101204.16;5107780;28;20502;-74
2023/06/09 10:25:34;;;;;;;18.95;8.50;;;;;;;22.12;59.95;101202.06;5110987;28;20024;-74
2023/06/09 10:27:59;;;;;;;18.75;8.50;;;;;;;22.29;59.95;101203.69;5114825;28;20027;-76
2023/06/09 10:30:25;;;;;;;19.80;8.88;;;;;;;22.36;58.00;101202.97;5112125;28;20026;-74
2023/06/09 10:32:56;;;;;;;19.35;7.35;;;;;;;22.47;58.68;101202.56;5113839;28;20028;-74
2023/06/09 10:35:32;;;;;;;17.58;7.13;;;;;;;22.44;58.41;101202.94;5104543;28;20375;-74
2023/06/09 10:37:59;;;;;;;17.95;8.18;;;;;;;22.54;59.22;101203.53;5111303;28;20024;-74
2023/06/09 10:40:30;;;;;;;20.13;8.98;;;;;;;22.76;56.74;101195.50;5116214;28;20015;-74
2023/06/09 10:43:40;;;;;;;20.90;9.20;;;;;;;22.71;57.70;101195.19;5087071;28;20023;-74
2023/06/09 10:46:06;;;;;;;18.75;8.35;;;;;;;22.76;55.73;101187.28;5017801;28;20073;-73
2023/06/09 10:48:48;;;;;;;19.05;8.82;;;;;;;22.78;55.21;101187.94;5020828;28;20107;-74
2023/06/09 10:51:29;;;;;;;26.48;9.13;;;;;;;22.79;55.09;101184.16;5025005;28;20424;-73
2023/06/09 10:54:07;;;;;;;17.40;8.00;;;;;;;22.81;57.22;101184.81;5021284;28;20030;-75
2023/06/09 10:56:40;;;;;;;23.60;10.52;;;;;;;22.91;56.62;101181.81;5005866;28;20037;-73
2023/06/09 10:59:05;;;;;;;20.02;8.75;;;;;;;22.90;53.24;101177.38;5021914;28;20026;-74
2023/06/09 11:01:32;;;;;;;18.20;8.95;;;;;;;22.95;54.60;101178.50;5022518;28;20065;-74
2023/06/09 11:03:57;;;;;;;23.60;8.93;;;;;;;23.02;55.98;101176.72;5021058;28;20029;-74
2023/06/09 11:06:23;;;;;;;22.70;9.48;;;;;;;23.08;56.61;101166.06;5009463;28;20033;-75
2023/06/09 11:09:20;;;;;;;20.75;9.30;;;;;;;23.11;53.38;101182.19;5007690;28;20154;-73
2023/06/09 11:11:50;;;;;;;18.67;8.10;;;;;;;23.24;54.40;101174.16;4960176;28;20042;-73
2023/06/09 11:14:43;;;;;;;19.77;7.72;;;;;;;23.18;55.67;101169.41;5016183;28;20038;-74
2023/06/09 11:17:22;;;;;;;17.65;7.90;;;;;;;23.21;55.84;101166.31;5007616;28;20506;-75